sensor_id;sensor_type;location;lat;lon;timestamp;P1;durP1;ratioP1;P2;durP2;ratioP2
4873;SDS011;2451;49.970;9.068;2023-05-07T00:00:17;8.50;;;3.92;;
4873;SDS011;2451;49.970;9.068;2023-05-07T00:02:44;7.00;;;4.13;;
4873;SDS011;2451;49.970;9.068;2023-05-07T00:05:10;6.55;;;3.85;;
4873;SDS011;2451;49.970;9.068;2023-05-07T00:07:36;6.43;;;4.03;;
4873;SDS011;2451;49.970;9.068;2023-05-07T00:10:01;6.40;;;4.07;;
4873;SDS011;2451;49.970;9.068;2023-05-07T00:12:28;5.78;;;4.28;;
4873;SDS011;2451;49.970;9.068;2023-05-07T00:14:56;6.00;;;3.80;;
4873;SDS011;2451;49.970;9.068;2023-05-07T00:17:22;7.15;;;4.40;;
4873;SDS011;2451;49.970;9.068;2023-05-07T00:19:48;7.88;;;3.95;;
4873;SDS011;2451;49.970;9.068;2023-05-07T00:22:13;7.43;;;4.03;;
4873;SDS011;2451;49.970;9.068;2023-05-07T00:24:39;6.75;;;3.92;;
4873;SDS011;2451;49.970;9.068;2023-05-07T00:27:04;7.13;;;4.38;;
4873;SDS011;2451;49.970;9.068;2023-05-07T00:29:30;6.18;;;4.05;;
4873;SDS011;2451;49.970;9.068;2023-05-07T00:31:56;6.18;;;3.97;;
4873;SDS011;2451;49.970;9.068;2023-05-07T00:34:21;6.53;;;3.58;;
4873;SDS011;2451;49.970;9.068;2023-05-07T00:36:47;5.78;;;3.80;;
4873;SDS011;2451;49.970;9.068;2023-05-07T00:39:13;8.57;;;3.92;;
4873;SDS011;2451;49.970;9.068;2023-05-07T00:41:38;6.07;;;4.10;;
4873;SDS011;2451;49.970;9.068;2023-05-07T00:44:04;6.55;;;3.92;;
4873;SDS011;2451;49.970;9.068;2023-05-07T00:46:30;5.93;;;3.83;;
4873;SDS011;2451;49.970;9.068;2023-05-07T00:48:56;5.20;;;3.42;;
4873;SDS011;2451;49.970;9.068;2023-05-07T00:51:23;5.78;;;4.00;;
4873;SDS011;2451;49.970;9.068;2023-05-07T00:53:50;7.28;;;3.85;;
4873;SDS011;2451;49.970;9.068;2023-05-07T00:56:16;6.95;;;4.30;;
4873;SDS011;2451;49.970;9.068;2023-05-07T00:58:41;7.55;;;4.30;;
4873;SDS011;2451;49.970;9.068;2023-05-07T01:01:07;5.90;;;4.15;;
4873;SDS011;2451;49.970;9.068;2023-05-07T01:03:33;6.22;;;4.13;;
4873;SDS011;2451;49.970;9.068;2023-05-07T01:05:58;6.35;;;4.57;;
4873;SDS011;2451;49.970;9.068;2023-05-07T01:08:25;8.60;;;4.78;;
4873;SDS011;2451;49.970;9.068;2023-05-07T01:10:53;6.85;;;4.32;;
4873;SDS011;2451;49.970;9.068;2023-05-07T01:13:20;7.78;;;4.45;;
4873;SDS011;2451;49.970;9.068;2023-05-07T01:15:46;5.72;;;4.15;;
4873;SDS011;2451;49.970;9.068;2023-05-07T01:18:11;6.85;;;4.22;;
4873;SDS011;2451;49.970;9.068;2023-05-07T01:20:37;6.47;;;4.22;;
4873;SDS011;2451;49.970;9.068;2023-05-07T01:23:03;7.38;;;4.15;;
4873;SDS011;2451;49.970;9.068;2023-05-07T01:25:30;6.35;;;4.32;;
4873;SDS011;2451;49.970;9.068;2023-05-07T01:27:56;8.38;;;4.55;;
4873;SDS011;2451;49.970;9.068;2023-05-07T01:30:21;9.05;;;4.60;;
4873;SDS011;2451;49.970;9.068;2023-05-07T01:32:48;5.68;;;4.30;;
4873;SDS011;2451;49.970;9.068;2023-05-07T01:35:22;7.40;;;4.80;;
4873;SDS011;2451;49.970;9.068;2023-05-07T01:37:50;10.35;;;5.15;;
4873;SDS011;2451;49.970;9.068;2023-05-07T01:40:15;7.45;;;4.57;;
4873;SDS011;2451;49.970;9.068;2023-05-07T01:42:42;6.50;;;4.65;;
4873;SDS011;2451;49.970;9.068;2023-05-07T01:45:08;6.57;;;5.10;;
4873;SDS011;2451;49.970;9.068;2023-05-07T01:47:35;6.95;;;4.53;;
4873;SDS011;2451;49.970;9.068;2023-05-07T01:50:02;8.02;;;4.68;;
4873;SDS011;2451;49.970;9.068;2023-05-07T01:52:31;8.25;;;4.75;;
4873;SDS011;2451;49.970;9.068;2023-05-07T01:54:56;8.77;;;4.90;;
4873;SDS011;2451;49.970;9.068;2023-05-07T01:57:22;7.43;;;4.53;;
4873;SDS011;2451;49.970;9.068;2023-05-07T01:59:47;7.47;;;4.75;;
4873;SDS011;2451;49.970;9.068;2023-05-07T02:02:13;8.70;;;5.10;;
4873;SDS011;2451;49.970;9.068;2023-05-07T02:04:39;8.07;;;5.15;;
4873;SDS011;2451;49.970;9.068;2023-05-07T02:07:04;6.82;;;5.15;;
4873;SDS011;2451;49.970;9.068;2023-05-07T02:09:30;8.25;;;5.28;;
4873;SDS011;2451;49.970;9.068;2023-05-07T02:11:55;6.57;;;5.13;;
4873;SDS011;2451;49.970;9.068;2023-05-07T02:14:21;9.50;;;5.00;;
4873;SDS011;2451;49.970;9.068;2023-05-07T02:16:46;7.53;;;5.03;;
4873;SDS011;2451;49.970;9.068;2023-05-07T02:19:12;7.25;;;5.35;;
4873;SDS011;2451;49.970;9.068;2023-05-07T02:21:37;7.15;;;5.10;;
4873;SDS011;2451;49.970;9.068;2023-05-07T02:24:03;7.32;;;5.57;;
4873;SDS011;2451;49.970;9.068;2023-05-07T02:26:29;8.02;;;5.38;;
4873;SDS011;2451;49.970;9.068;2023-05-07T02:28:54;7.60;;;5.50;;
4873;SDS011;2451;49.970;9.068;2023-05-07T02:31:20;7.60;;;5.40;;
4873;SDS011;2451;49.970;9.068;2023-05-07T02:33:45;7.32;;;5.20;;
4873;SDS011;2451;49.970;9.068;2023-05-07T02:36:11;7.65;;;5.22;;
4873;SDS011;2451;49.970;9.068;2023-05-07T02:38:37;7.90;;;5.20;;
4873;SDS011;2451;49.970;9.068;2023-05-07T02:41:03;7.63;;;5.35;;
4873;SDS011;2451;49.970;9.068;2023-05-07T02:43:29;6.93;;;5.07;;
4873;SDS011;2451;49.970;9.068;2023-05-07T02:46:07;6.03;;;4.72;;
4873;SDS011;2451;49.970;9.068;2023-05-07T02:48:33;9.85;;;5.45;;
4873;SDS011;2451;49.970;9.068;2023-05-07T02:51:00;9.50;;;5.60;;
4873;SDS011;2451;49.970;9.068;2023-05-07T02:53:26;9.20;;;4.97;;
4873;SDS011;2451;49.970;9.068;2023-05-07T02:55:52;8.02;;;5.15;;
4873;SDS011;2451;49.970;9.068;2023-05-07T02:58:18;8.63;;;4.93;;
4873;SDS011;2451;49.970;9.068;2023-05-07T03:00:44;6.75;;;4.68;;
4873;SDS011;2451;49.970;9.068;2023-05-07T03:03:10;8.35;;;5.88;;
4873;SDS011;2451;49.970;9.068;2023-05-07T03:05:35;7.20;;;5.50;;
4873;SDS011;2451;49.970;9.068;2023-05-07T03:08:01;7.68;;;5.00;;
4873;SDS011;2451;49.970;9.068;2023-05-07T03:10:27;8.07;;;5.30;;
4873;SDS011;2451;49.970;9.068;2023-05-07T03:12:53;8.07;;;5.10;;
4873;SDS011;2451;49.970;9.068;2023-05-07T03:15:18;7.47;;;4.88;;
4873;SDS011;2451;49.970;9.068;2023-05-07T03:17:44;8.20;;;4.85;;
4873;SDS011;2451;49.970;9.068;2023-05-07T03:20:09;7.30;;;4.70;;
4873;SDS011;2451;49.970;9.068;2023-05-07T03:22:35;7.68;;;5.30;;
4873;SDS011;2451;49.970;9.068;2023-05-07T03:25:01;7.60;;;4.95;;
4873;SDS011;2451;49.970;9.068;2023-05-07T03:27:27;8.88;;;5.20;;
4873;SDS011;2451;49.970;9.068;2023-05-07T03:29:52;11.25;;;4.90;;
4873;SDS011;2451;49.970;9.068;2023-05-07T03:32:18;7.75;;;5.10;;
4873;SDS011;2451;49.970;9.068;2023-05-07T03:34:43;7.18;;;5.15;;
4873;SDS011;2451;49.970;9.068;2023-05-07T03:37:09;7.35;;;4.97;;
4873;SDS011;2451;49.970;9.068;2023-05-07T03:39:34;8.93;;;5.30;;
4873;SDS011;2451;49.970;9.068;2023-05-07T03:42:00;8.48;;;5.43;;
4873;SDS011;2451;49.970;9.068;2023-05-07T03:44:26;7.32;;;5.03;;
4873;SDS011;2451;49.970;9.068;2023-05-07T03:46:51;9.15;;;5.50;;
4873;SDS011;2451;49.970;9.068;2023-05-07T03:49:17;8.50;;;5.40;;
4873;SDS011;2451;49.970;9.068;2023-05-07T03:51:42;9.77;;;6.22;;
4873;SDS011;2451;49.970;9.068;2023-05-07T03:54:08;8.20;;;5.72;;
4873;SDS011;2451;49.970;9.068;2023-05-07T03:56:33;9.20;;;6.50;;
4873;SDS011;2451;49.970;9.068;2023-05-07T03:59:00;10.30;;;5.65;;
4873;SDS011;2451;49.970;9.068;2023-05-07T04:01:26;8.10;;;5.95;;
4873;SDS011;2451;49.970;9.068;2023-05-07T04:03:52;9.95;;;5.97;;
4873;SDS011;2451;49.970;9.068;2023-05-07T04:06:17;8.85;;;6.10;;
4873;SDS011;2451;49.970;9.068;2023-05-07T04:08:43;9.75;;;6.15;;
4873;SDS011;2451;49.970;9.068;2023-05-07T04:11:08;9.38;;;6.30;;
4873;SDS011;2451;49.970;9.068;2023-05-07T04:13:34;8.30;;;6.07;;
4873;SDS011;2451;49.970;9.068;2023-05-07T04:16:01;12.02;;;6.22;;
4873;SDS011;2451;49.970;9.068;2023-05-07T04:18:28;9.23;;;6.57;;
4873;SDS011;2451;49.970;9.068;2023-05-07T04:20:53;10.20;;;6.80;;
4873;SDS011;2451;49.970;9.068;2023-05-07T04:23:19;9.02;;;6.47;;
4873;SDS011;2451;49.970;9.068;2023-05-07T04:25:44;11.85;;;6.97;;
4873;SDS011;2451;49.970;9.068;2023-05-07T04:28:10;9.73;;;6.68;;
4873;SDS011;2451;49.970;9.068;2023-05-07T04:30:36;11.45;;;6.63;;
4873;SDS011;2451;49.970;9.068;2023-05-07T04:33:02;10.30;;;6.18;;
4873;SDS011;2451;49.970;9.068;2023-05-07T04:35:27;9.20;;;6.45;;
4873;SDS011;2451;49.970;9.068;2023-05-07T04:37:53;8.07;;;6.05;;
4873;SDS011;2451;49.970;9.068;2023-05-07T04:40:19;7.43;;;6.07;;
4873;SDS011;2451;49.970;9.068;2023-05-07T04:42:44;10.40;;;6.50;;
4873;SDS011;2451;49.970;9.068;2023-05-07T04:45:10;8.80;;;6.50;;
4873;SDS011;2451;49.970;9.068;2023-05-07T04:47:37;8.77;;;6.32;;
4873;SDS011;2451;49.970;9.068;2023-05-07T04:50:03;8.65;;;5.88;;
4873;SDS011;2451;49.970;9.068;2023-05-07T04:52:29;8.52;;;6.00;;
4873;SDS011;2451;49.970;9.068;2023-05-07T04:54:54;7.80;;;5.60;;
4873;SDS011;2451;49.970;9.068;2023-05-07T04:57:20;8.55;;;6.03;;
4873;SDS011;2451;49.970;9.068;2023-05-07T04:59:46;8.68;;;5.93;;
4873;SDS011;2451;49.970;9.068;2023-05-07T05:02:11;9.45;;;5.93;;
4873;SDS011;2451;49.970;9.068;2023-05-07T05:04:37;8.10;;;5.30;;
4873;SDS011;2451;49.970;9.068;2023-05-07T05:07:02;8.02;;;5.47;;
4873;SDS011;2451;49.970;9.068;2023-05-07T05:09:29;6.95;;;5.45;;
4873;SDS011;2451;49.970;9.068;2023-05-07T05:11:54;8.13;;;5.45;;
4873;SDS011;2451;49.970;9.068;2023-05-07T05:14:20;8.40;;;6.00;;
4873;SDS011;2451;49.970;9.068;2023-05-07T05:16:46;8.98;;;5.80;;
4873;SDS011;2451;49.970;9.068;2023-05-07T05:19:11;9.32;;;5.75;;
4873;SDS011;2451;49.970;9.068;2023-05-07T05:21:37;8.77;;;6.20;;
4873;SDS011;2451;49.970;9.068;2023-05-07T05:24:02;9.65;;;5.97;;
4873;SDS011;2451;49.970;9.068;2023-05-07T05:26:28;7.55;;;5.03;;
4873;SDS011;2451;49.970;9.068;2023-05-07T05:28:54;8.38;;;5.55;;
4873;SDS011;2451;49.970;9.068;2023-05-07T05:31:20;7.30;;;4.90;;
4873;SDS011;2451;49.970;9.068;2023-05-07T05:33:46;6.80;;;4.70;;
4873;SDS011;2451;49.970;9.068;2023-05-07T05:36:11;8.70;;;4.80;;
4873;SDS011;2451;49.970;9.068;2023-05-07T05:38:38;9.73;;;4.90;;
4873;SDS011;2451;49.970;9.068;2023-05-07T05:41:04;7.18;;;4.55;;
4873;SDS011;2451;49.970;9.068;2023-05-07T05:43:29;6.65;;;4.38;;
4873;SDS011;2451;49.970;9.068;2023-05-07T05:45:55;7.50;;;4.70;;
4873;SDS011;2451;49.970;9.068;2023-05-07T05:48:21;8.45;;;4.70;;
4873;SDS011;2451;49.970;9.068;2023-05-07T05:50:47;6.10;;;4.13;;
4873;SDS011;2451;49.970;9.068;2023-05-07T05:53:13;6.72;;;4.25;;
4873;SDS011;2451;49.970;9.068;2023-05-07T05:55:39;5.78;;;3.78;;
4873;SDS011;2451;49.970;9.068;2023-05-07T05:58:04;5.70;;;4.20;;
4873;SDS011;2451;49.970;9.068;2023-05-07T06:00:30;6.30;;;4.40;;
4873;SDS011;2451;49.970;9.068;2023-05-07T06:02:56;6.53;;;4.20;;
4873;SDS011;2451;49.970;9.068;2023-05-07T06:05:22;4.93;;;3.63;;
4873;SDS011;2451;49.970;9.068;2023-05-07T06:07:47;6.63;;;3.92;;
4873;SDS011;2451;49.970;9.068;2023-05-07T06:10:13;5.18;;;3.95;;
4873;SDS011;2451;49.970;9.068;2023-05-07T06:12:39;6.10;;;3.95;;
4873;SDS011;2451;49.970;9.068;2023-05-07T06:15:05;6.95;;;4.15;;
4873;SDS011;2451;49.970;9.068;2023-05-07T06:17:31;6.22;;;4.10;;
4873;SDS011;2451;49.970;9.068;2023-05-07T06:19:56;6.53;;;4.22;;
4873;SDS011;2451;49.970;9.068;2023-05-07T06:22:22;6.70;;;4.07;;
4873;SDS011;2451;49.970;9.068;2023-05-07T06:24:48;5.60;;;4.28;;
4873;SDS011;2451;49.970;9.068;2023-05-07T06:27:13;6.80;;;4.32;;
4873;SDS011;2451;49.970;9.068;2023-05-07T06:29:39;5.70;;;4.32;;
4873;SDS011;2451;49.970;9.068;2023-05-07T06:32:08;5.82;;;4.22;;
4873;SDS011;2451;49.970;9.068;2023-05-07T06:37:00;5.78;;;4.53;;
4873;SDS011;2451;49.970;9.068;2023-05-07T06:39:26;5.18;;;4.22;;
4873;SDS011;2451;49.970;9.068;2023-05-07T06:41:51;6.95;;;4.65;;
4873;SDS011;2451;49.970;9.068;2023-05-07T06:44:17;7.32;;;4.25;;
4873;SDS011;2451;49.970;9.068;2023-05-07T06:46:43;7.30;;;4.10;;
4873;SDS011;2451;49.970;9.068;2023-05-07T06:49:08;5.45;;;4.43;;
4873;SDS011;2451;49.970;9.068;2023-05-07T06:51:34;5.63;;;4.15;;
4873;SDS011;2451;49.970;9.068;2023-05-07T06:53:59;6.65;;;4.55;;
4873;SDS011;2451;49.970;9.068;2023-05-07T06:56:25;7.65;;;4.50;;
4873;SDS011;2451;49.970;9.068;2023-05-07T06:58:50;6.25;;;4.43;;
4873;SDS011;2451;49.970;9.068;2023-05-07T07:01:16;5.82;;;4.57;;
4873;SDS011;2451;49.970;9.068;2023-05-07T07:03:42;6.22;;;4.70;;
4873;SDS011;2451;49.970;9.068;2023-05-07T07:06:07;8.40;;;4.70;;
4873;SDS011;2451;49.970;9.068;2023-05-07T07:08:33;5.65;;;4.30;;
4873;SDS011;2451;49.970;9.068;2023-05-07T07:10:59;7.43;;;4.70;;
4873;SDS011;2451;49.970;9.068;2023-05-07T07:13:25;7.00;;;4.50;;
4873;SDS011;2451;49.970;9.068;2023-05-07T07:15:51;7.05;;;4.60;;
4873;SDS011;2451;49.970;9.068;2023-05-07T07:18:18;5.72;;;4.47;;
4873;SDS011;2451;49.970;9.068;2023-05-07T07:20:43;6.65;;;4.85;;
4873;SDS011;2451;49.970;9.068;2023-05-07T07:23:09;7.55;;;4.90;;
4873;SDS011;2451;49.970;9.068;2023-05-07T07:25:35;6.18;;;4.90;;
4873;SDS011;2451;49.970;9.068;2023-05-07T07:28:01;8.15;;;5.00;;
4873;SDS011;2451;49.970;9.068;2023-05-07T07:30:26;5.00;;;4.50;;
4873;SDS011;2451;49.970;9.068;2023-05-07T07:32:52;5.60;;;4.78;;
4873;SDS011;2451;49.970;9.068;2023-05-07T07:35:18;6.35;;;4.80;;
4873;SDS011;2451;49.970;9.068;2023-05-07T07:37:44;7.03;;;4.82;;
4873;SDS011;2451;49.970;9.068;2023-05-07T07:40:10;6.53;;;4.75;;
4873;SDS011;2451;49.970;9.068;2023-05-07T07:42:36;5.65;;;4.65;;
4873;SDS011;2451;49.970;9.068;2023-05-07T07:45:02;6.32;;;5.05;;
4873;SDS011;2451;49.970;9.068;2023-05-07T07:47:28;6.03;;;4.82;;
4873;SDS011;2451;49.970;9.068;2023-05-07T07:49:54;6.72;;;5.00;;
4873;SDS011;2451;49.970;9.068;2023-05-07T07:52:19;6.30;;;4.95;;
4873;SDS011;2451;49.970;9.068;2023-05-07T07:54:45;6.43;;;4.95;;
4873;SDS011;2451;49.970;9.068;2023-05-07T07:57:11;8.30;;;5.20;;
4873;SDS011;2451;49.970;9.068;2023-05-07T07:59:36;7.18;;;4.80;;
4873;SDS011;2451;49.970;9.068;2023-05-07T08:02:02;7.22;;;4.78;;
4873;SDS011;2451;49.970;9.068;2023-05-07T08:04:27;6.63;;;4.90;;
4873;SDS011;2451;49.970;9.068;2023-05-07T08:06:53;8.00;;;5.07;;
4873;SDS011;2451;49.970;9.068;2023-05-07T08:09:19;7.35;;;4.90;;
4873;SDS011;2451;49.970;9.068;2023-05-07T08:11:45;7.47;;;5.00;;
4873;SDS011;2451;49.970;9.068;2023-05-07T08:14:11;5.70;;;4.93;;
4873;SDS011;2451;49.970;9.068;2023-05-07T08:16:36;6.65;;;5.03;;
4873;SDS011;2451;49.970;9.068;2023-05-07T08:19:02;5.63;;;4.97;;
4873;SDS011;2451;49.970;9.068;2023-05-07T08:21:27;5.85;;;4.60;;
4873;SDS011;2451;49.970;9.068;2023-05-07T08:23:53;6.40;;;4.97;;
4873;SDS011;2451;49.970;9.068;2023-05-07T08:26:18;6.25;;;4.65;;
4873;SDS011;2451;49.970;9.068;2023-05-07T08:28:45;5.78;;;4.78;;
4873;SDS011;2451;49.970;9.068;2023-05-07T08:31:10;8.25;;;4.78;;
4873;SDS011;2451;49.970;9.068;2023-05-07T08:33:36;6.82;;;4.82;;
4873;SDS011;2451;49.970;9.068;2023-05-07T08:36:03;7.22;;;5.20;;
4873;SDS011;2451;49.970;9.068;2023-05-07T08:38:29;7.35;;;5.35;;
4873;SDS011;2451;49.970;9.068;2023-05-07T08:40:55;6.32;;;4.65;;
4873;SDS011;2451;49.970;9.068;2023-05-07T08:43:20;7.65;;;5.20;;
4873;SDS011;2451;49.970;9.068;2023-05-07T08:45:48;6.05;;;5.00;;
4873;SDS011;2451;49.970;9.068;2023-05-07T08:48:17;6.23;;;4.60;;
4873;SDS011;2451;49.970;9.068;2023-05-07T08:50:45;5.63;;;4.70;;
4873;SDS011;2451;49.970;9.068;2023-05-07T08:53:10;6.20;;;4.95;;
4873;SDS011;2451;49.970;9.068;2023-05-07T08:55:37;8.48;;;5.07;;
4873;SDS011;2451;49.970;9.068;2023-05-07T08:58:03;7.10;;;5.28;;
4873;SDS011;2451;49.970;9.068;2023-05-07T09:00:28;6.03;;;5.00;;
4873;SDS011;2451;49.970;9.068;2023-05-07T09:02:55;6.47;;;5.18;;
4873;SDS011;2451;49.970;9.068;2023-05-07T09:05:21;6.85;;;5.30;;
4873;SDS011;2451;49.970;9.068;2023-05-07T09:07:46;7.45;;;5.13;;
4873;SDS011;2451;49.970;9.068;2023-05-07T09:10:12;6.68;;;5.45;;
4873;SDS011;2451;49.970;9.068;2023-05-07T09:12:39;6.50;;;4.80;;
4873;SDS011;2451;49.970;9.068;2023-05-07T09:15:05;6.32;;;4.97;;
4873;SDS011;2451;49.970;9.068;2023-05-07T09:17:31;6.68;;;4.70;;
4873;SDS011;2451;49.970;9.068;2023-05-07T09:20:01;7.68;;;4.78;;
4873;SDS011;2451;49.970;9.068;2023-05-07T09:22:35;7.47;;;4.90;;
4873;SDS011;2451;49.970;9.068;2023-05-07T09:25:02;5.78;;;4.72;;
4873;SDS011;2451;49.970;9.068;2023-05-07T09:27:28;5.60;;;4.78;;
4873;SDS011;2451;49.970;9.068;2023-05-07T09:29:55;5.70;;;4.60;;
4873;SDS011;2451;49.970;9.068;2023-05-07T09:32:21;7.22;;;4.70;;
4873;SDS011;2451;49.970;9.068;2023-05-07T09:34:46;5.72;;;4.90;;
4873;SDS011;2451;49.970;9.068;2023-05-07T09:37:12;6.25;;;4.40;;
4873;SDS011;2451;49.970;9.068;2023-05-07T09:39:41;6.38;;;4.80;;
4873;SDS011;2451;49.970;9.068;2023-05-07T09:42:11;5.38;;;4.60;;
4873;SDS011;2451;49.970;9.068;2023-05-07T09:44:38;7.38;;;4.80;;
4873;SDS011;2451;49.970;9.068;2023-05-07T09:47:05;5.45;;;4.75;;
4873;SDS011;2451;49.970;9.068;2023-05-07T09:49:33;7.05;;;5.05;;
4873;SDS011;2451;49.970;9.068;2023-05-07T09:52:01;8.43;;;4.72;;
4873;SDS011;2451;49.970;9.068;2023-05-07T09:54:28;5.30;;;4.55;;
4873;SDS011;2451;49.970;9.068;2023-05-07T09:56:54;7.55;;;4.28;;
4873;SDS011;2451;49.970;9.068;2023-05-07T09:59:20;5.82;;;4.55;;
4873;SDS011;2451;49.970;9.068;2023-05-07T10:01:47;7.55;;;4.53;;
4873;SDS011;2451;49.970;9.068;2023-05-07T10:04:13;4.72;;;4.10;;
4873;SDS011;2451;49.970;9.068;2023-05-07T10:06:39;4.88;;;4.00;;
4873;SDS011;2451;49.970;9.068;2023-05-07T10:09:06;5.30;;;4.40;;
4873;SDS011;2451;49.970;9.068;2023-05-07T10:11:33;6.97;;;4.45;;
4873;SDS011;2451;49.970;9.068;2023-05-07T10:13:59;6.85;;;4.63;;
4873;SDS011;2451;49.970;9.068;2023-05-07T10:16:27;4.57;;;3.50;;
4873;SDS011;2451;49.970;9.068;2023-05-07T10:19:02;5.45;;;3.97;;
4873;SDS011;2451;49.970;9.068;2023-05-07T10:21:29;5.97;;;3.67;;
4873;SDS011;2451;49.970;9.068;2023-05-07T10:24:05;4.47;;;4.03;;
4873;SDS011;2451;49.970;9.068;2023-05-07T10:26:39;4.18;;;3.60;;
4873;SDS011;2451;49.970;9.068;2023-05-07T10:29:12;5.20;;;3.95;;
4873;SDS011;2451;49.970;9.068;2023-05-07T10:34:32;5.32;;;4.10;;
4873;SDS011;2451;49.970;9.068;2023-05-07T10:37:01;6.28;;;4.10;;
4873;SDS011;2451;49.970;9.068;2023-05-07T10:39:27;4.72;;;3.85;;
4873;SDS011;2451;49.970;9.068;2023-05-07T10:41:53;5.45;;;3.78;;
4873;SDS011;2451;49.970;9.068;2023-05-07T10:44:25;4.95;;;3.83;;
4873;SDS011;2451;49.970;9.068;2023-05-07T10:47:07;4.55;;;3.60;;
4873;SDS011;2451;49.970;9.068;2023-05-07T10:49:34;6.82;;;3.90;;
4873;SDS011;2451;49.970;9.068;2023-05-07T10:52:17;7.10;;;3.97;;
4873;SDS011;2451;49.970;9.068;2023-05-07T10:54:44;5.47;;;3.83;;
4873;SDS011;2451;49.970;9.068;2023-05-07T11:00:40;4.50;;;3.90;;
4873;SDS011;2451;49.970;9.068;2023-05-07T11:05:24;4.68;;;4.00;;
4873;SDS011;2451;49.970;9.068;2023-05-07T11:07:54;8.30;;;3.70;;
4873;SDS011;2451;49.970;9.068;2023-05-07T11:13:18;5.80;;;3.90;;
4873;SDS011;2451;49.970;9.068;2023-05-07T11:16:05;5.63;;;3.90;;
4873;SDS011;2451;49.970;9.068;2023-05-07T11:18:48;5.55;;;3.60;;
4873;SDS011;2451;49.970;9.068;2023-05-07T11:24:03;3.70;;;3.40;;
4873;SDS011;2451;49.970;9.068;2023-05-07T11:26:31;4.10;;;3.30;;
4873;SDS011;2451;49.970;9.068;2023-05-07T11:29:10;5.25;;;3.83;;
4873;SDS011;2451;49.970;9.068;2023-05-07T11:31:43;6.50;;;4.20;;
4873;SDS011;2451;49.970;9.068;2023-05-07T11:34:09;4.13;;;3.28;;
4873;SDS011;2451;49.970;9.068;2023-05-07T11:36:35;3.88;;;2.97;;
4873;SDS011;2451;49.970;9.068;2023-05-07T11:41:54;3.63;;;2.80;;
4873;SDS011;2451;49.970;9.068;2023-05-07T11:44:19;5.10;;;3.05;;
4873;SDS011;2451;49.970;9.068;2023-05-07T11:46:45;3.75;;;2.80;;
4873;SDS011;2451;49.970;9.068;2023-05-07T11:49:10;3.65;;;2.55;;
4873;SDS011;2451;49.970;9.068;2023-05-07T11:51:36;4.90;;;2.70;;
4873;SDS011;2451;49.970;9.068;2023-05-07T11:54:05;4.75;;;3.13;;
4873;SDS011;2451;49.970;9.068;2023-05-07T11:56:36;3.20;;;2.60;;
4873;SDS011;2451;49.970;9.068;2023-05-07T11:59:02;3.53;;;2.60;;
4873;SDS011;2451;49.970;9.068;2023-05-07T12:01:27;3.70;;;2.40;;
4873;SDS011;2451;49.970;9.068;2023-05-07T12:03:53;3.28;;;2.40;;
4873;SDS011;2451;49.970;9.068;2023-05-07T12:06:18;3.25;;;2.67;;
4873;SDS011;2451;49.970;9.068;2023-05-07T12:08:44;3.28;;;2.30;;
4873;SDS011;2451;49.970;9.068;2023-05-07T12:11:14;2.90;;;2.30;;
4873;SDS011;2451;49.970;9.068;2023-05-07T12:13:42;3.75;;;2.53;;
4873;SDS011;2451;49.970;9.068;2023-05-07T12:16:08;3.17;;;2.63;;
4873;SDS011;2451;49.970;9.068;2023-05-07T12:18:35;3.63;;;2.55;;
4873;SDS011;2451;49.970;9.068;2023-05-07T12:21:02;6.28;;;2.40;;
4873;SDS011;2451;49.970;9.068;2023-05-07T12:23:29;3.10;;;2.58;;
4873;SDS011;2451;49.970;9.068;2023-05-07T12:25:55;3.83;;;2.40;;
4873;SDS011;2451;49.970;9.068;2023-05-07T12:28:21;3.25;;;2.40;;
4873;SDS011;2451;49.970;9.068;2023-05-07T12:30:48;3.00;;;2.50;;
4873;SDS011;2451;49.970;9.068;2023-05-07T12:33:18;4.00;;;2.70;;
4873;SDS011;2451;49.970;9.068;2023-05-07T12:35:48;5.05;;;3.03;;
4873;SDS011;2451;49.970;9.068;2023-05-07T12:38:15;4.30;;;3.17;;
4873;SDS011;2451;49.970;9.068;2023-05-07T12:40:45;4.93;;;3.03;;
4873;SDS011;2451;49.970;9.068;2023-05-07T12:43:24;5.40;;;3.17;;
4873;SDS011;2451;49.970;9.068;2023-05-07T12:45:52;5.47;;;2.67;;
4873;SDS011;2451;49.970;9.068;2023-05-07T12:48:20;4.68;;;2.95;;
4873;SDS011;2451;49.970;9.068;2023-05-07T12:50:48;5.15;;;2.83;;
4873;SDS011;2451;49.970;9.068;2023-05-07T12:53:14;4.88;;;2.53;;
4873;SDS011;2451;49.970;9.068;2023-05-07T12:55:41;5.85;;;2.72;;
4873;SDS011;2451;49.970;9.068;2023-05-07T12:58:09;3.03;;;2.20;;
4873;SDS011;2451;49.970;9.068;2023-05-07T13:00:43;3.65;;;2.58;;
4873;SDS011;2451;49.970;9.068;2023-05-07T13:03:09;3.45;;;2.28;;
4873;SDS011;2451;49.970;9.068;2023-05-07T13:05:36;3.55;;;2.13;;
4873;SDS011;2451;49.970;9.068;2023-05-07T13:08:01;6.78;;;2.20;;
4873;SDS011;2451;49.970;9.068;2023-05-07T13:10:27;2.47;;;2.00;;
4873;SDS011;2451;49.970;9.068;2023-05-07T13:12:53;4.55;;;2.47;;
4873;SDS011;2451;49.970;9.068;2023-05-07T13:15:19;2.97;;;2.20;;
4873;SDS011;2451;49.970;9.068;2023-05-07T13:17:45;2.95;;;2.10;;
4873;SDS011;2451;49.970;9.068;2023-05-07T13:20:10;4.25;;;2.08;;
4873;SDS011;2451;49.970;9.068;2023-05-07T13:22:37;2.75;;;2.20;;
4873;SDS011;2451;49.970;9.068;2023-05-07T13:25:03;2.70;;;2.42;;
4873;SDS011;2451;49.970;9.068;2023-05-07T13:27:29;3.85;;;2.00;;
4873;SDS011;2451;49.970;9.068;2023-05-07T13:29:55;4.55;;;1.85;;
4873;SDS011;2451;49.970;9.068;2023-05-07T13:32:21;4.07;;;1.80;;
4873;SDS011;2451;49.970;9.068;2023-05-07T13:34:47;3.88;;;2.00;;
4873;SDS011;2451;49.970;9.068;2023-05-07T13:37:12;2.20;;;1.90;;
4873;SDS011;2451;49.970;9.068;2023-05-07T13:39:38;2.70;;;1.90;;
4873;SDS011;2451;49.970;9.068;2023-05-07T13:42:04;3.08;;;2.00;;
4873;SDS011;2451;49.970;9.068;2023-05-07T13:44:29;4.03;;;1.88;;
4873;SDS011;2451;49.970;9.068;2023-05-07T13:46:55;2.20;;;1.70;;
4873;SDS011;2451;49.970;9.068;2023-05-07T13:49:20;2.95;;;1.80;;
4873;SDS011;2451;49.970;9.068;2023-05-07T13:51:46;2.17;;;1.85;;
4873;SDS011;2451;49.970;9.068;2023-05-07T13:54:11;3.03;;;2.08;;
4873;SDS011;2451;49.970;9.068;2023-05-07T13:56:37;3.35;;;1.90;;
4873;SDS011;2451;49.970;9.068;2023-05-07T13:59:03;3.28;;;2.03;;
4873;SDS011;2451;49.970;9.068;2023-05-07T14:01:28;4.88;;;2.35;;
4873;SDS011;2451;49.970;9.068;2023-05-07T14:03:55;3.65;;;2.38;;
4873;SDS011;2451;49.970;9.068;2023-05-07T14:06:21;2.28;;;1.85;;
4873;SDS011;2451;49.970;9.068;2023-05-07T14:08:47;3.80;;;2.15;;
4873;SDS011;2451;49.970;9.068;2023-05-07T14:11:12;3.45;;;2.15;;
4873;SDS011;2451;49.970;9.068;2023-05-07T14:13:38;2.83;;;2.40;;
4873;SDS011;2451;49.970;9.068;2023-05-07T14:16:04;4.47;;;2.85;;
4873;SDS011;2451;49.970;9.068;2023-05-07T14:18:30;4.18;;;2.58;;
4873;SDS011;2451;49.970;9.068;2023-05-07T14:20:55;4.72;;;2.50;;
4873;SDS011;2451;49.970;9.068;2023-05-07T14:23:21;4.78;;;2.70;;
4873;SDS011;2451;49.970;9.068;2023-05-07T14:25:51;4.38;;;2.75;;
4873;SDS011;2451;49.970;9.068;2023-05-07T14:28:21;4.90;;;2.70;;
4873;SDS011;2451;49.970;9.068;2023-05-07T14:30:47;3.28;;;2.60;;
4873;SDS011;2451;49.970;9.068;2023-05-07T14:33:13;2.80;;;2.50;;
4873;SDS011;2451;49.970;9.068;2023-05-07T14:35:38;5.38;;;2.50;;
4873;SDS011;2451;49.970;9.068;2023-05-07T14:38:04;3.63;;;2.50;;
4873;SDS011;2451;49.970;9.068;2023-05-07T14:40:29;3.97;;;2.70;;
4873;SDS011;2451;49.970;9.068;2023-05-07T14:42:55;4.68;;;2.80;;
4873;SDS011;2451;49.970;9.068;2023-05-07T14:45:22;4.43;;;2.60;;
4873;SDS011;2451;49.970;9.068;2023-05-07T14:47:47;4.80;;;2.85;;
4873;SDS011;2451;49.970;9.068;2023-05-07T14:50:13;4.93;;;2.75;;
4873;SDS011;2451;49.970;9.068;2023-05-07T14:52:39;3.95;;;2.63;;
4873;SDS011;2451;49.970;9.068;2023-05-07T14:55:04;4.65;;;3.00;;
4873;SDS011;2451;49.970;9.068;2023-05-07T14:57:30;5.05;;;2.90;;
4873;SDS011;2451;49.970;9.068;2023-05-07T15:02:25;3.50;;;2.80;;
4873;SDS011;2451;49.970;9.068;2023-05-07T15:04:51;4.95;;;2.80;;
4873;SDS011;2451;49.970;9.068;2023-05-07T15:07:17;3.75;;;2.53;;
4873;SDS011;2451;49.970;9.068;2023-05-07T15:09:42;4.50;;;2.90;;
4873;SDS011;2451;49.970;9.068;2023-05-07T15:12:09;4.13;;;2.75;;
4873;SDS011;2451;49.970;9.068;2023-05-07T15:14:35;3.08;;;2.60;;
4873;SDS011;2451;49.970;9.068;2023-05-07T15:17:01;4.65;;;2.97;;
4873;SDS011;2451;49.970;9.068;2023-05-07T15:19:27;6.03;;;2.97;;
4873;SDS011;2451;49.970;9.068;2023-05-07T15:21:54;5.35;;;2.90;;
4873;SDS011;2451;49.970;9.068;2023-05-07T15:24:23;4.82;;;2.80;;
4873;SDS011;2451;49.970;9.068;2023-05-07T15:26:49;5.97;;;2.95;;
4873;SDS011;2451;49.970;9.068;2023-05-07T15:29:16;4.55;;;2.92;;
4873;SDS011;2451;49.970;9.068;2023-05-07T15:31:42;4.15;;;2.90;;